sensor_id;sensor_type;location;lat;lon;timestamp;P1;durP1;ratioP1;P2;durP2;ratioP2
28170;SDS011;15458;53.346;-1.688;2023-03-23T00:02:27;8.00;;;1.30;;
28170;SDS011;15458;53.346;-1.688;2023-03-23T00:04:54;6.82;;;0.90;;
28170;SDS011;15458;53.346;-1.688;2023-03-23T00:07:21;5.63;;;1.02;;
28170;SDS011;15458;53.346;-1.688;2023-03-23T00:09:48;6.60;;;1.00;;
28170;SDS011;15458;53.346;-1.688;2023-03-23T00:12:18;6.65;;;1.08;;
28170;SDS011;15458;53.346;-1.688;2023-03-23T00:14:58;9.23;;;1.37;;
28170;SDS011;15458;53.346;-1.688;2023-03-23T00:17:28;9.27;;;1.20;;
28170;SDS011;15458;53.346;-1.688;2023-03-23T00:19:55;3.05;;;0.70;;
28170;SDS011;15458;53.346;-1.688;2023-03-23T00:22:21;3.83;;;0.75;;
28170;SDS011;15458;53.346;-1.688;2023-03-23T00:24:50;6.85;;;1.60;;
28170;SDS011;15458;53.346;-1.688;2023-03-23T00:27:16;6.35;;;1.20;;
28170;SDS011;15458;53.346;-1.688;2023-03-23T00:29:42;9.48;;;1.42;;
28170;SDS011;15458;53.346;-1.688;2023-03-23T00:32:10;5.00;;;1.23;;
28170;SDS011;15458;53.346;-1.688;2023-03-23T00:34:41;8.57;;;1.45;;
28170;SDS011;15458;53.346;-1.688;2023-03-23T00:37:09;3.95;;;1.25;;
28170;SDS011;15458;53.346;-1.688;2023-03-23T00:39:35;5.53;;;0.60;;
28170;SDS011;15458;53.346;-1.688;2023-03-23T00:42:04;3.75;;;1.45;;
28170;SDS011;15458;53.346;-1.688;2023-03-23T00:44:31;7.88;;;1.02;;
28170;SDS011;15458;53.346;-1.688;2023-03-23T00:46:59;3.83;;;1.13;;
28170;SDS011;15458;53.346;-1.688;2023-03-23T00:49:26;5.15;;;1.10;;
28170;SDS011;15458;53.346;-1.688;2023-03-23T00:51:52;5.70;;;1.50;;
28170;SDS011;15458;53.346;-1.688;2023-03-23T00:54:19;7.18;;;1.33;;
28170;SDS011;15458;53.346;-1.688;2023-03-23T00:56:46;8.88;;;1.73;;
28170;SDS011;15458;53.346;-1.688;2023-03-23T00:59:12;7.90;;;1.02;;
28170;SDS011;15458;53.346;-1.688;2023-03-23T01:01:38;7.65;;;0.85;;
28170;SDS011;15458;53.346;-1.688;2023-03-23T01:04:03;3.00;;;0.63;;
28170;SDS011;15458;53.346;-1.688;2023-03-23T01:06:30;8.00;;;1.30;;
28170;SDS011;15458;53.346;-1.688;2023-03-23T01:09:00;7.40;;;0.85;;
28170;SDS011;15458;53.346;-1.688;2023-03-23T01:11:28;9.18;;;1.35;;
28170;SDS011;15458;53.346;-1.688;2023-03-23T01:13:54;7.95;;;0.90;;
28170;SDS011;15458;53.346;-1.688;2023-03-23T01:16:20;3.30;;;1.20;;
28170;SDS011;15458;53.346;-1.688;2023-03-23T01:18:46;9.00;;;1.08;;
28170;SDS011;15458;53.346;-1.688;2023-03-23T01:21:15;5.25;;;0.82;;
28170;SDS011;15458;53.346;-1.688;2023-03-23T01:23:42;5.72;;;0.75;;
28170;SDS011;15458;53.346;-1.688;2023-03-23T01:26:29;8.77;;;1.10;;
28170;SDS011;15458;53.346;-1.688;2023-03-23T01:28:54;13.25;;;1.30;;
28170;SDS011;15458;53.346;-1.688;2023-03-23T01:31:22;8.63;;;1.58;;
28170;SDS011;15458;53.346;-1.688;2023-03-23T01:33:49;11.65;;;1.10;;
28170;SDS011;15458;53.346;-1.688;2023-03-23T01:36:20;5.47;;;1.00;;
28170;SDS011;15458;53.346;-1.688;2023-03-23T01:38:48;4.13;;;1.02;;
28170;SDS011;15458;53.346;-1.688;2023-03-23T01:41:15;6.65;;;1.00;;
28170;SDS011;15458;53.346;-1.688;2023-03-23T01:46:29;7.05;;;1.00;;
28170;SDS011;15458;53.346;-1.688;2023-03-23T01:49:00;7.45;;;1.00;;
28170;SDS011;15458;53.346;-1.688;2023-03-23T01:51:37;9.52;;;1.38;;
28170;SDS011;15458;53.346;-1.688;2023-03-23T01:54:07;12.18;;;1.33;;
28170;SDS011;15458;53.346;-1.688;2023-03-23T01:56:43;11.52;;;1.00;;
28170;SDS011;15458;53.346;-1.688;2023-03-23T01:59:12;12.55;;;1.40;;
28170;SDS011;15458;53.346;-1.688;2023-03-23T02:01:39;12.48;;;1.33;;
28170;SDS011;15458;53.346;-1.688;2023-03-23T02:04:10;14.38;;;2.03;;
28170;SDS011;15458;53.346;-1.688;2023-03-23T02:06:39;9.43;;;1.33;;
28170;SDS011;15458;53.346;-1.688;2023-03-23T02:09:05;13.98;;;2.25;;
28170;SDS011;15458;53.346;-1.688;2023-03-23T02:11:31;8.02;;;1.17;;
28170;SDS011;15458;53.346;-1.688;2023-03-23T02:13:57;8.02;;;1.10;;
28170;SDS011;15458;53.346;-1.688;2023-03-23T02:30:22;11.40;;;1.88;;
28170;SDS011;15458;53.346;-1.688;2023-03-23T02:35:56;7.50;;;1.08;;
28170;SDS011;15458;53.346;-1.688;2023-03-23T02:38:30;9.13;;;1.13;;
28170;SDS011;15458;53.346;-1.688;2023-03-23T02:41:00;10.38;;;1.65;;
28170;SDS011;15458;53.346;-1.688;2023-03-23T02:43:28;9.73;;;1.50;;
28170;SDS011;15458;53.346;-1.688;2023-03-23T02:45:58;3.58;;;1.10;;
28170;SDS011;15458;53.346;-1.688;2023-03-23T02:48:27;8.90;;;1.25;;
28170;SDS011;15458;53.346;-1.688;2023-03-23T02:50:55;9.30;;;1.52;;
28170;SDS011;15458;53.346;-1.688;2023-03-23T02:53:22;11.30;;;1.42;;
28170;SDS011;15458;53.346;-1.688;2023-03-23T02:55:49;14.63;;;1.88;;
28170;SDS011;15458;53.346;-1.688;2023-03-23T02:58:18;9.45;;;1.40;;
28170;SDS011;15458;53.346;-1.688;2023-03-23T03:00:44;10.80;;;1.85;;
28170;SDS011;15458;53.346;-1.688;2023-03-23T03:03:15;12.18;;;1.73;;
28170;SDS011;15458;53.346;-1.688;2023-03-23T03:06:03;15.95;;;1.65;;
28170;SDS011;15458;53.346;-1.688;2023-03-23T03:09:13;11.43;;;1.20;;
28170;SDS011;15458;53.346;-1.688;2023-03-23T03:12:04;15.60;;;1.88;;
28170;SDS011;15458;53.346;-1.688;2023-03-23T03:14:39;10.02;;;1.27;;
28170;SDS011;15458;53.346;-1.688;2023-03-23T03:17:14;16.73;;;2.60;;
28170;SDS011;15458;53.346;-1.688;2023-03-23T03:20:01;7.95;;;0.85;;
28170;SDS011;15458;53.346;-1.688;2023-03-23T03:22:34;16.50;;;3.03;;
28170;SDS011;15458;53.346;-1.688;2023-03-23T03:25:03;14.48;;;2.10;;
28170;SDS011;15458;53.346;-1.688;2023-03-23T03:27:30;15.02;;;1.85;;
28170;SDS011;15458;53.346;-1.688;2023-03-23T03:29:58;14.80;;;2.72;;
28170;SDS011;15458;53.346;-1.688;2023-03-23T03:32:31;11.65;;;1.60;;
28170;SDS011;15458;53.346;-1.688;2023-03-23T03:35:04;17.90;;;2.58;;
28170;SDS011;15458;53.346;-1.688;2023-03-23T03:37:37;16.60;;;2.08;;
28170;SDS011;15458;53.346;-1.688;2023-03-23T03:40:06;13.85;;;2.03;;
28170;SDS011;15458;53.346;-1.688;2023-03-23T03:42:39;17.90;;;3.08;;
28170;SDS011;15458;53.346;-1.688;2023-03-23T03:45:13;9.85;;;1.90;;
28170;SDS011;15458;53.346;-1.688;2023-03-23T03:47:41;19.77;;;1.90;;
28170;SDS011;15458;53.346;-1.688;2023-03-23T03:50:07;17.98;;;1.98;;
28170;SDS011;15458;53.346;-1.688;2023-03-23T03:52:34;13.20;;;1.65;;
28170;SDS011;15458;53.346;-1.688;2023-03-23T03:55:00;16.08;;;2.35;;
28170;SDS011;15458;53.346;-1.688;2023-03-23T03:57:26;19.48;;;1.95;;
28170;SDS011;15458;53.346;-1.688;2023-03-23T03:59:52;7.43;;;1.30;;
28170;SDS011;15458;53.346;-1.688;2023-03-23T04:02:18;20.67;;;2.25;;
28170;SDS011;15458;53.346;-1.688;2023-03-23T04:04:48;15.60;;;2.13;;
28170;SDS011;15458;53.346;-1.688;2023-03-23T04:07:14;17.80;;;1.60;;
28170;SDS011;15458;53.346;-1.688;2023-03-23T04:09:41;11.23;;;2.05;;
28170;SDS011;15458;53.346;-1.688;2023-03-23T04:12:08;10.60;;;1.80;;
28170;SDS011;15458;53.346;-1.688;2023-03-23T04:14:34;15.32;;;1.45;;
28170;SDS011;15458;53.346;-1.688;2023-03-23T04:16:59;15.40;;;1.92;;
28170;SDS011;15458;53.346;-1.688;2023-03-23T04:19:25;15.18;;;2.15;;
28170;SDS011;15458;53.346;-1.688;2023-03-23T04:21:53;22.10;;;2.40;;
28170;SDS011;15458;53.346;-1.688;2023-03-23T04:24:20;27.33;;;3.25;;
28170;SDS011;15458;53.346;-1.688;2023-03-23T04:26:46;16.48;;;2.15;;
28170;SDS011;15458;53.346;-1.688;2023-03-23T04:29:12;15.25;;;2.05;;
28170;SDS011;15458;53.346;-1.688;2023-03-23T04:31:38;14.10;;;1.70;;
28170;SDS011;15458;53.346;-1.688;2023-03-23T04:34:04;15.32;;;2.03;;
28170;SDS011;15458;53.346;-1.688;2023-03-23T04:36:30;14.18;;;1.95;;
28170;SDS011;15458;53.346;-1.688;2023-03-23T04:38:59;16.33;;;2.33;;
28170;SDS011;15458;53.346;-1.688;2023-03-23T04:41:25;19.13;;;2.75;;
28170;SDS011;15458;53.346;-1.688;2023-03-23T04:43:51;16.90;;;2.30;;
28170;SDS011;15458;53.346;-1.688;2023-03-23T04:46:18;16.42;;;2.17;;
28170;SDS011;15458;53.346;-1.688;2023-03-23T04:48:46;20.08;;;2.65;;
28170;SDS011;15458;53.346;-1.688;2023-03-23T04:51:12;13.35;;;1.50;;
28170;SDS011;15458;53.346;-1.688;2023-03-23T04:53:38;12.05;;;1.50;;
28170;SDS011;15458;53.346;-1.688;2023-03-23T04:56:04;22.42;;;2.13;;
28170;SDS011;15458;53.346;-1.688;2023-03-23T04:58:30;13.68;;;1.63;;
28170;SDS011;15458;53.346;-1.688;2023-03-23T05:00:59;22.08;;;3.92;;
28170;SDS011;15458;53.346;-1.688;2023-03-23T05:03:25;15.80;;;2.35;;
28170;SDS011;15458;53.346;-1.688;2023-03-23T05:05:52;20.27;;;2.17;;
28170;SDS011;15458;53.346;-1.688;2023-03-23T05:08:22;17.50;;;2.67;;
28170;SDS011;15458;53.346;-1.688;2023-03-23T05:10:53;22.05;;;2.38;;
28170;SDS011;15458;53.346;-1.688;2023-03-23T05:13:23;21.05;;;3.28;;
28170;SDS011;15458;53.346;-1.688;2023-03-23T05:15:49;23.58;;;2.40;;
28170;SDS011;15458;53.346;-1.688;2023-03-23T05:18:15;16.52;;;2.22;;
28170;SDS011;15458;53.346;-1.688;2023-03-23T05:20:41;19.80;;;1.75;;
28170;SDS011;15458;53.346;-1.688;2023-03-23T05:23:08;18.02;;;2.70;;
28170;SDS011;15458;53.346;-1.688;2023-03-23T05:25:35;9.35;;;1.73;;
28170;SDS011;15458;53.346;-1.688;2023-03-23T05:28:05;17.00;;;2.20;;
28170;SDS011;15458;53.346;-1.688;2023-03-23T05:30:31;26.13;;;2.55;;
28170;SDS011;15458;53.346;-1.688;2023-03-23T05:32:57;23.88;;;3.65;;
28170;SDS011;15458;53.346;-1.688;2023-03-23T05:35:24;12.05;;;2.15;;
28170;SDS011;15458;53.346;-1.688;2023-03-23T05:37:50;19.58;;;3.83;;
28170;SDS011;15458;53.346;-1.688;2023-03-23T05:40:18;19.17;;;2.53;;
28170;SDS011;15458;53.346;-1.688;2023-03-23T05:42:45;20.52;;;3.28;;
28170;SDS011;15458;53.346;-1.688;2023-03-23T05:45:11;17.77;;;1.85;;
28170;SDS011;15458;53.346;-1.688;2023-03-23T05:47:38;16.60;;;2.30;;
28170;SDS011;15458;53.346;-1.688;2023-03-23T05:50:05;13.35;;;2.30;;
28170;SDS011;15458;53.346;-1.688;2023-03-23T05:52:33;16.45;;;2.90;;
28170;SDS011;15458;53.346;-1.688;2023-03-23T05:55:00;25.42;;;2.92;;
28170;SDS011;15458;53.346;-1.688;2023-03-23T05:57:28;16.92;;;2.42;;
28170;SDS011;15458;53.346;-1.688;2023-03-23T05:59:55;20.55;;;2.78;;
28170;SDS011;15458;53.346;-1.688;2023-03-23T06:02:22;16.90;;;1.45;;
28170;SDS011;15458;53.346;-1.688;2023-03-23T06:04:49;25.23;;;2.53;;
28170;SDS011;15458;53.346;-1.688;2023-03-23T06:07:15;22.70;;;2.63;;
28170;SDS011;15458;53.346;-1.688;2023-03-23T06:09:41;20.02;;;2.28;;
28170;SDS011;15458;53.346;-1.688;2023-03-23T06:12:07;22.33;;;2.25;;
28170;SDS011;15458;53.346;-1.688;2023-03-23T06:14:34;17.25;;;2.53;;
28170;SDS011;15458;53.346;-1.688;2023-03-23T06:17:01;22.45;;;3.08;;
28170;SDS011;15458;53.346;-1.688;2023-03-23T06:19:27;14.90;;;2.60;;
28170;SDS011;15458;53.346;-1.688;2023-03-23T06:21:56;24.00;;;2.63;;
28170;SDS011;15458;53.346;-1.688;2023-03-23T06:24:21;24.52;;;2.30;;
28170;SDS011;15458;53.346;-1.688;2023-03-23T06:26:47;29.05;;;3.00;;
28170;SDS011;15458;53.346;-1.688;2023-03-23T06:29:15;20.08;;;3.35;;
28170;SDS011;15458;53.346;-1.688;2023-03-23T06:31:45;21.70;;;3.97;;
28170;SDS011;15458;53.346;-1.688;2023-03-23T06:34:14;20.92;;;2.55;;
28170;SDS011;15458;53.346;-1.688;2023-03-23T06:36:40;29.33;;;3.38;;
28170;SDS011;15458;53.346;-1.688;2023-03-23T06:39:08;32.20;;;3.45;;
28170;SDS011;15458;53.346;-1.688;2023-03-23T06:41:34;25.05;;;3.17;;
28170;SDS011;15458;53.346;-1.688;2023-03-23T06:44:00;20.48;;;2.35;;
28170;SDS011;15458;53.346;-1.688;2023-03-23T06:46:26;21.15;;;2.30;;
28170;SDS011;15458;53.346;-1.688;2023-03-23T06:48:53;27.95;;;2.83;;
28170;SDS011;15458;53.346;-1.688;2023-03-23T06:51:19;18.85;;;3.67;;
28170;SDS011;15458;53.346;-1.688;2023-03-23T06:53:46;21.23;;;2.65;;
28170;SDS011;15458;53.346;-1.688;2023-03-23T06:56:11;21.65;;;3.35;;
28170;SDS011;15458;53.346;-1.688;2023-03-23T06:58:38;21.45;;;2.92;;
28170;SDS011;15458;53.346;-1.688;2023-03-23T07:01:04;31.85;;;2.72;;
28170;SDS011;15458;53.346;-1.688;2023-03-23T07:03:30;19.63;;;2.13;;
28170;SDS011;15458;53.346;-1.688;2023-03-23T07:05:56;28.40;;;2.50;;
28170;SDS011;15458;53.346;-1.688;2023-03-23T07:08:23;24.45;;;2.75;;
28170;SDS011;15458;53.346;-1.688;2023-03-23T07:10:52;24.75;;;2.50;;
28170;SDS011;15458;53.346;-1.688;2023-03-23T07:13:19;18.23;;;3.03;;
28170;SDS011;15458;53.346;-1.688;2023-03-23T07:15:45;26.00;;;2.78;;
28170;SDS011;15458;53.346;-1.688;2023-03-23T07:18:11;26.75;;;4.03;;
28170;SDS011;15458;53.346;-1.688;2023-03-23T07:20:36;24.65;;;2.97;;
28170;SDS011;15458;53.346;-1.688;2023-03-23T07:23:02;15.63;;;2.95;;
28170;SDS011;15458;53.346;-1.688;2023-03-23T07:25:30;16.77;;;1.88;;
28170;SDS011;15458;53.346;-1.688;2023-03-23T07:27:58;16.67;;;2.20;;
28170;SDS011;15458;53.346;-1.688;2023-03-23T07:30:25;21.40;;;2.42;;
28170;SDS011;15458;53.346;-1.688;2023-03-23T07:32:52;27.77;;;4.70;;
28170;SDS011;15458;53.346;-1.688;2023-03-23T07:35:18;20.10;;;3.35;;
28170;SDS011;15458;53.346;-1.688;2023-03-23T07:37:44;23.05;;;3.30;;
28170;SDS011;15458;53.346;-1.688;2023-03-23T07:40:10;16.80;;;2.58;;
28170;SDS011;15458;53.346;-1.688;2023-03-23T07:42:40;22.85;;;2.75;;
28170;SDS011;15458;53.346;-1.688;2023-03-23T07:45:07;21.35;;;3.00;;
28170;SDS011;15458;53.346;-1.688;2023-03-23T07:47:33;30.38;;;5.78;;
28170;SDS011;15458;53.346;-1.688;2023-03-23T07:49:59;22.73;;;2.97;;
28170;SDS011;15458;53.346;-1.688;2023-03-23T07:52:25;28.77;;;5.30;;
28170;SDS011;15458;53.346;-1.688;2023-03-23T07:54:50;27.42;;;3.72;;
28170;SDS011;15458;53.346;-1.688;2023-03-23T07:57:16;19.45;;;2.75;;
28170;SDS011;15458;53.346;-1.688;2023-03-23T07:59:42;24.67;;;3.45;;
28170;SDS011;15458;53.346;-1.688;2023-03-23T08:02:08;21.00;;;3.42;;
28170;SDS011;15458;53.346;-1.688;2023-03-23T08:04:35;23.77;;;2.70;;
28170;SDS011;15458;53.346;-1.688;2023-03-23T08:07:02;12.00;;;2.10;;
28170;SDS011;15458;53.346;-1.688;2023-03-23T08:09:32;20.45;;;3.05;;
28170;SDS011;15458;53.346;-1.688;2023-03-23T08:11:57;31.25;;;4.57;;
28170;SDS011;15458;53.346;-1.688;2023-03-23T08:14:23;18.98;;;3.63;;
28170;SDS011;15458;53.346;-1.688;2023-03-23T08:16:53;20.37;;;3.47;;
28170;SDS011;15458;53.346;-1.688;2023-03-23T08:19:21;19.52;;;2.53;;
28170;SDS011;15458;53.346;-1.688;2023-03-23T08:21:47;25.10;;;3.45;;
28170;SDS011;15458;53.346;-1.688;2023-03-23T08:24:14;15.10;;;1.80;;
28170;SDS011;15458;53.346;-1.688;2023-03-23T08:26:40;23.08;;;2.70;;
28170;SDS011;15458;53.346;-1.688;2023-03-23T08:29:06;23.38;;;3.50;;
28170;SDS011;15458;53.346;-1.688;2023-03-23T08:31:33;22.23;;;2.30;;
28170;SDS011;15458;53.346;-1.688;2023-03-23T08:34:03;33.25;;;4.43;;
28170;SDS011;15458;53.346;-1.688;2023-03-23T08:36:30;22.80;;;3.03;;
28170;SDS011;15458;53.346;-1.688;2023-03-23T08:39:00;35.53;;;3.40;;
28170;SDS011;15458;53.346;-1.688;2023-03-23T08:41:26;20.20;;;3.25;;
28170;SDS011;15458;53.346;-1.688;2023-03-23T08:43:53;30.02;;;3.45;;
28170;SDS011;15458;53.346;-1.688;2023-03-23T08:46:19;17.17;;;3.25;;
28170;SDS011;15458;53.346;-1.688;2023-03-23T08:48:45;14.93;;;2.30;;
28170;SDS011;15458;53.346;-1.688;2023-03-23T08:51:11;26.20;;;2.90;;
28170;SDS011;15458;53.346;-1.688;2023-03-23T08:53:40;14.80;;;3.67;;
28170;SDS011;15458;53.346;-1.688;2023-03-23T08:56:07;19.75;;;2.92;;
28170;SDS011;15458;53.346;-1.688;2023-03-23T08:58:35;21.25;;;2.90;;
28170;SDS011;15458;53.346;-1.688;2023-03-23T09:01:02;24.33;;;2.80;;
28170;SDS011;15458;53.346;-1.688;2023-03-23T09:03:32;20.73;;;2.63;;
28170;SDS011;15458;53.346;-1.688;2023-03-23T09:06:03;19.13;;;3.17;;
28170;SDS011;15458;53.346;-1.688;2023-03-23T09:08:33;22.27;;;2.45;;
28170;SDS011;15458;53.346;-1.688;2023-03-23T09:11:04;19.25;;;2.70;;
28170;SDS011;15458;53.346;-1.688;2023-03-23T09:13:32;23.77;;;3.45;;
28170;SDS011;15458;53.346;-1.688;2023-03-23T09:15:58;27.80;;;3.72;;
28170;SDS011;15458;53.346;-1.688;2023-03-23T09:18:27;20.58;;;3.20;;
28170;SDS011;15458;53.346;-1.688;2023-03-23T09:20:53;11.70;;;3.05;;
28170;SDS011;15458;53.346;-1.688;2023-03-23T09:23:19;24.35;;;2.65;;
28170;SDS011;15458;53.346;-1.688;2023-03-23T09:25:45;11.45;;;2.47;;
28170;SDS011;15458;53.346;-1.688;2023-03-23T09:28:12;13.38;;;2.15;;
28170;SDS011;15458;53.346;-1.688;2023-03-23T09:30:38;13.85;;;2.33;;
28170;SDS011;15458;53.346;-1.688;2023-03-23T09:33:06;23.23;;;2.75;;
28170;SDS011;15458;53.346;-1.688;2023-03-23T09:35:38;17.40;;;3.08;;
28170;SDS011;15458;53.346;-1.688;2023-03-23T09:38:06;26.38;;;3.38;;
28170;SDS011;15458;53.346;-1.688;2023-03-23T09:43:33;23.77;;;4.63;;
28170;SDS011;15458;53.346;-1.688;2023-03-23T09:48:59;34.72;;;2.95;;
28170;SDS011;15458;53.346;-1.688;2023-03-23T09:57:00;16.80;;;3.33;;
28170;SDS011;15458;53.346;-1.688;2023-03-23T09:59:28;16.50;;;3.35;;
28170;SDS011;15458;53.346;-1.688;2023-03-23T10:02:13;19.75;;;4.47;;
28170;SDS011;15458;53.346;-1.688;2023-03-23T10:04:46;13.70;;;3.05;;
28170;SDS011;15458;53.346;-1.688;2023-03-23T10:07:15;15.40;;;3.70;;
28170;SDS011;15458;53.346;-1.688;2023-03-23T10:09:43;15.45;;;2.75;;
28170;SDS011;15458;53.346;-1.688;2023-03-23T10:17:50;17.73;;;2.50;;
28170;SDS011;15458;53.346;-1.688;2023-03-23T10:20:28;24.00;;;3.47;;
28170;SDS011;15458;53.346;-1.688;2023-03-23T10:25:53;16.73;;;3.17;;
28170;SDS011;15458;53.346;-1.688;2023-03-23T10:28:35;21.90;;;3.08;;
28170;SDS011;15458;53.346;-1.688;2023-03-23T10:31:31;23.88;;;4.32;;
28170;SDS011;15458;53.346;-1.688;2023-03-23T10:34:11;23.45;;;3.03;;
28170;SDS011;15458;53.346;-1.688;2023-03-23T10:37:08;17.52;;;2.97;;
28170;SDS011;15458;53.346;-1.688;2023-03-23T10:39:59;16.77;;;2.92;;
28170;SDS011;15458;53.346;-1.688;2023-03-23T10:42:26;15.20;;;2.55;;
28170;SDS011;15458;53.346;-1.688;2023-03-23T10:44:58;22.02;;;4.65;;
28170;SDS011;15458;53.346;-1.688;2023-03-23T10:47:25;27.75;;;3.95;;
28170;SDS011;15458;53.346;-1.688;2023-03-23T10:49:57;24.60;;;2.28;;
28170;SDS011;15458;53.346;-1.688;2023-03-23T10:55:13;20.13;;;4.28;;
28170;SDS011;15458;53.346;-1.688;2023-03-23T10:57:58;12.13;;;2.22;;
28170;SDS011;15458;53.346;-1.688;2023-03-23T11:00:26;22.33;;;2.72;;
28170;SDS011;15458;53.346;-1.688;2023-03-23T11:03:03;17.38;;;3.10;;
28170;SDS011;15458;53.346;-1.688;2023-03-23T11:06:06;14.23;;;3.08;;
28170;SDS011;15458;53.346;-1.688;2023-03-23T11:08:29;15.93;;;2.55;;
28170;SDS011;15458;53.346;-1.688;2023-03-23T11:11:11;16.25;;;2.70;;
28170;SDS011;15458;53.346;-1.688;2023-03-23T11:13:47;15.88;;;3.20;;
28170;SDS011;15458;53.346;-1.688;2023-03-23T11:16:26;17.60;;;2.97;;
28170;SDS011;15458;53.346;-1.688;2023-03-23T11:18:55;11.57;;;1.98;;
28170;SDS011;15458;53.346;-1.688;2023-03-23T11:21:37;14.93;;;2.35;;
28170;SDS011;15458;53.346;-1.688;2023-03-23T11:24:05;18.33;;;2.53;;
28170;SDS011;15458;53.346;-1.688;2023-03-23T11:26:33;25.05;;;3.33;;
28170;SDS011;15458;53.346;-1.688;2023-03-23T11:29:20;10.27;;;1.98;;
28170;SDS011;15458;53.346;-1.688;2023-03-23T11:32:09;11.88;;;1.80;;
28170;SDS011;15458;53.346;-1.688;2023-03-23T11:34:44;5.32;;;1.17;;
28170;SDS011;15458;53.346;-1.688;2023-03-23T11:39:59;3.08;;;1.00;;
28170;SDS011;15458;53.346;-1.688;2023-03-23T11:42:47;5.80;;;0.88;;
28170;SDS011;15458;53.346;-1.688;2023-03-23T11:45:33;2.63;;;1.00;;
28170;SDS011;15458;53.346;-1.688;2023-03-23T11:50:53;13.45;;;1.60;;
28170;SDS011;15458;53.346;-1.688;2023-03-23T11:58:56;10.15;;;1.35;;
28170;SDS011;15458;53.346;-1.688;2023-03-23T12:04:24;12.82;;;2.17;;
28170;SDS011;15458;53.346;-1.688;2023-03-23T12:12:44;17.33;;;2.65;;
28170;SDS011;15458;53.346;-1.688;2023-03-23T12:15:27;14.40;;;2.28;;
28170;SDS011;15458;53.346;-1.688;2023-03-23T12:28:45;12.35;;;2.20;;
28170;SDS011;15458;53.346;-1.688;2023-03-23T12:48:08;8.70;;;1.38;;
28170;SDS011;15458;53.346;-1.688;2023-03-23T12:50:40;8.15;;;1.52;;
28170;SDS011;15458;53.346;-1.688;2023-03-23T12:53:21;6.35;;;1.90;;
28170;SDS011;15458;53.346;-1.688;2023-03-23T12:56:13;6.65;;;1.60;;
28170;SDS011;15458;53.346;-1.688;2023-03-23T12:58:47;9.45;;;1.60;;
28170;SDS011;15458;53.346;-1.688;2023-03-23T13:01:43;9.07;;;1.52;;
28170;SDS011;15458;53.346;-1.688;2023-03-23T13:04:23;7.05;;;1.20;;
28170;SDS011;15458;53.346;-1.688;2023-03-23T13:07:01;14.40;;;1.98;;
28170;SDS011;15458;53.346;-1.688;2023-03-23T13:09:35;7.40;;;1.55;;
28170;SDS011;15458;53.346;-1.688;2023-03-23T13:12:20;12.75;;;2.33;;
28170;SDS011;15458;53.346;-1.688;2023-03-23T13:14:50;10.27;;;2.20;;
28170;SDS011;15458;53.346;-1.688;2023-03-23T13:26:03;12.45;;;2.03;;
28170;SDS011;15458;53.346;-1.688;2023-03-23T13:28:50;8.07;;;1.98;;
28170;SDS011;15458;53.346;-1.688;2023-03-23T13:31:20;14.25;;;2.00;;
28170;SDS011;15458;53.346;-1.688;2023-03-23T13:34:03;14.00;;;2.15;;
28170;SDS011;15458;53.346;-1.688;2023-03-23T13:39:01;8.18;;;1.90;;
28170;SDS011;15458;53.346;-1.688;2023-03-23T13:41:29;9.88;;;1.63;;
28170;SDS011;15458;53.346;-1.688;2023-03-23T13:44:13;15.60;;;1.90;;
28170;SDS011;15458;53.346;-1.688;2023-03-23T13:49:52;10.82;;;1.92;;
28170;SDS011;15458;53.346;-1.688;2023-03-23T13:57:56;13.98;;;2.20;;
28170;SDS011;15458;53.346;-1.688;2023-03-23T14:13:59;14.07;;;1.70;;
28170;SDS011;15458;53.346;-1.688;2023-03-23T14:16:18;13.48;;;1.80;;
28170;SDS011;15458;53.346;-1.688;2023-03-23T14:18:58;9.27;;;1.63;;
28170;SDS011;15458;53.346;-1.688;2023-03-23T14:24:00;11.30;;;1.75;;
28170;SDS011;15458;53.346;-1.688;2023-03-23T14:26:27;16.77;;;2.28;;
28170;SDS011;15458;53.346;-1.688;2023-03-23T14:28:53;8.32;;;1.70;;
28170;SDS011;15458;53.346;-1.688;2023-03-23T14:31:23;12.05;;;2.65;;
28170;SDS011;15458;53.346;-1.688;2023-03-23T14:33:51;12.18;;;1.65;;
28170;SDS011;15458;53.346;-1.688;2023-03-23T14:36:19;11.07;;;1.77;;
28170;SDS011;15458;53.346;-1.688;2023-03-23T14:41:38;18.27;;;2.60;;
28170;SDS011;15458;53.346;-1.688;2023-03-23T14:44:06;16.95;;;2.83;;
28170;SDS011;15458;53.346;-1.688;2023-03-23T14:46:34;8.57;;;1.88;;
28170;SDS011;15458;53.346;-1.688;2023-03-23T14:49:01;19.55;;;2.72;;
28170;SDS011;15458;53.346;-1.688;2023-03-23T14:51:29;13.73;;;1.90;;
28170;SDS011;15458;53.346;-1.688;2023-03-23T14:53:55;11.80;;;2.03;;
28170;SDS011;15458;53.346;-1.688;2023-03-23T14:56:31;12.82;;;2.28;;
28170;SDS011;15458;53.346;-1.688;2023-03-23T14:59:02;11.57;;;1.90;;
28170;SDS011;15458;53.346;-1.688;2023-03-23T15:01:30;16.20;;;2.33;;
28170;SDS011;15458;53.346;-1.688;2023-03-23T15:04:01;17.08;;;3.03;;
28170;SDS011;15458;53.346;-1.688;2023-03-23T15:06:28;15.25;;;2.08;;
28170;SDS011;15458;53.346;-1.688;2023-03-23T15:08:57;20.15;;;2.60;;
28170;SDS011;15458;53.346;-1.688;2023-03-23T15:11:32;7.25;;;1.75;;
28170;SDS011;15458;53.346;-1.688;2023-03-23T15:14:02;14.82;;;3.17;;
28170;SDS011;15458;53.346;-1.688;2023-03-23T15:16:40;10.30;;;2.20;;
28170;SDS011;15458;53.346;-1.688;2023-03-23T15:19:22;8.85;;;1.90;;
28170;SDS011;15458;53.346;-1.688;2023-03-23T15:22:24;11.50;;;1.88;;
28170;SDS011;15458;53.346;-1.688;2023-03-23T15:27:54;9.45;;;1.55;;
28170;SDS011;15458;53.346;-1.688;2023-03-23T15:32:47;13.82;;;2.38;;
28170;SDS011;15458;53.346;-1.688;2023-03-23T15:35:19;7.97;;;1.63;;
28170;SDS011;15458;53.346;-1.688;2023-03-23T15:38:33;13.10;;;2.63;;
28170;SDS011;15458;53.346;-1.688;2023-03-23T15:40:49;11.75;;;2.17;;
28170;SDS011;15458;53.346;-1.688;2023-03-23T15:46:20;8.65;;;1.90;;
28170;SDS011;15458;53.346;-1.688;2023-03-23T15:48:51;13.15;;;2.83;;
28170;SDS011;15458;53.346;-1.688;2023-03-23T15:53:45;32.95;;;4.78;;
28170;SDS011;15458;53.346;-1.688;2023-03-23T15:56:11;10.48;;;2.38;;
28170;SDS011;15458;53.346;-1.688;2023-03-23T15:58:38;17.02;;;3.67;;
28170;SDS011;15458;53.346;-1.688;2023-03-23T16:01:06;20.58;;;6.95;;
28170;SDS011;15458;53.346;-1.688;2023-03-23T16:03:38;13.85;;;2.80;;
28170;SDS011;15458;53.346;-1.688;2023-03-23T16:06:11;17.13;;;2.50;;
28170;SDS011;15458;53.346;-1.688;2023-03-23T16:08:38;8.75;;;2.17;;
28170;SDS011;15458;53.346;-1.688;2023-03-23T16:11:08;21.58;;;3.40;;
28170;SDS011;15458;53.346;-1.688;2023-03-23T16:13:39;14.98;;;3.13;;
28170;SDS011;15458;53.346;-1.688;2023-03-23T16:16:05;13.38;;;3.40;;
28170;SDS011;15458;53.346;-1.688;2023-03-23T16:18:36;12.77;;;3.58;;
28170;SDS011;15458;53.346;-1.688;2023-03-23T16:21:02;16.58;;;4.25;;
28170;SDS011;15458;53.346;-1.688;2023-03-23T16:23:28;15.05;;;2.80;;
28170;SDS011;15458;53.346;-1.688;2023-03-23T16:25:53;18.33;;;4.00;;
28170;SDS011;15458;53.346;-1.688;2023-03-23T16:28:19;14.85;;;3.30;;
28170;SDS011;15458;53.346;-1.688;2023-03-23T16:30:45;17.23;;;3.22;;
28170;SDS011;15458;53.346;-1.688;2023-03-23T16:33:11;23.75;;;4.20;;
28170;SDS011;15458;53.346;-1.688;2023-03-23T16:35:37;21.35;;;5.90;;
28170;SDS011;15458;53.346;-1.688;2023-03-23T16:38:03;31.45;;;5.13;;
28170;SDS011;15458;53.346;-1.688;2023-03-23T16:40:29;18.13;;;2.53;;
28170;SDS011;15458;53.346;-1.688;2023-03-23T16:42:55;19.02;;;4.18;;
28170;SDS011;15458;53.346;-1.688;2023-03-23T16:45:21;23.77;;;3.30;;
28170;SDS011;15458;53.346;-1.688;2023-03-23T16:47:48;19.80;;;3.67;;
28170;SDS011;15458;53.346;-1.688;2023-03-23T16:50:15;16.70;;;2.92;;
28170;SDS011;15458;53.346;-1.688;2023-03-23T16:52:42;14.63;;;2.70;;
28170;SDS011;15458;53.346;-1.688;2023-03-23T16:55:11;13.60;;;2.60;;
28170;SDS011;15458;53.346;-1.688;2023-03-23T16:57:38;16.73;;;2.75;;
28170;SDS011;15458;53.346;-1.688;2023-03-23T17:00:05;12.65;;;2.80;;